Karl Stefan Memorial Airport
KOFK : now visible

Airfield :











YOU CAN JOIN US ON...

 
LOGIN :

Register | Disclaimer

   EN    FR    IT 

 









Legend :    VFR   Marginal VFR   IFR   Intensive IFR   Very Intensive IFR
Visi :
Ceiling :
>= 8 km
>= 3000ft
5 to 8 km
1000 to 3000 ft
1500m to 5 km
500 to 1000 ft
800 to 1500m
200 to 500 ft
< 800m
< 200 ft
Symbols :   Thunderstorms  Fog  Heavy snow  Heavy precipitations  Wind > 20 kt






- Airport Elevation : 1573 ft


KOFK - Karl Stefan Memorial

CURRENT METAR :
  • 161156Z AUTO 31003KT 8SM FEW120 20/19 A2994 RMK AO2 SLP124 T02000189 10239 20194 53016

EXPIRED METARs :
  • 161056Z AUTO 28003KT 10SM CLR 19/18 A2992 RMK AO2 SLP116 T01940183
  • 160956Z AUTO 00000KT 10SM FEW100 21/19 A2991 RMK AO2 SLP113 T02060189
  • 160856Z AUTO 02004KT 10SM CLR 22/18 A2989 RMK AO2 SLP107 T02220183 55003
  • 160756Z AUTO 03004KT 10SM CLR 22/18 A2989 RMK AO2 SLP105 T02220183

TAF KOFK
Valid from the 16 at 12:00 until the 17 at 12:00 UTC


161120Z 1612/1712 28003KT P6SM BKN250
FM161500 05008KT P6SM SCT070 BKN150
FM162200 09010KT P6SM OVC100
TEMPO 1622/1701 P6SM -TSRA BKN045CB
FM170100 03005KT P6SM -RA BKN050
FM170400 09005KT P6SM SCT100
KZMP FIR / North America



MET'MAP, your aeronautical weather chart ! - Copyright ORBIFLY December 2007 - Disclaimer

ORBIFLY MET'MAP TEAM :

Programming & Development : Alexandra Zaïnal
Original concept : Baudouin d'Aumeries
Technical & hardware support : Manuel Goepfert
Assistance : Marc-Olivier Méhu




SOURCES & CREDITS :

   NOAA       Earth
Advisory